sensor_id;sensor_type;location;lat;lon;timestamp;pressure;altitude;pressure_sealevel;temperature;humidity
75136;BME280;63707;52.212;9.540;2022-11-11T00:00:06;101210.59;;;8.54;75.49
75136;BME280;63707;52.212;9.540;2022-11-11T00:02:36;101209.00;;;8.43;76.07
75136;BME280;63707;52.212;9.540;2022-11-11T00:05:02;101203.72;;;8.34;76.40
75136;BME280;63707;52.212;9.540;2022-11-11T00:07:28;101211.16;;;8.32;76.62
75136;BME280;63707;52.212;9.540;2022-11-11T00:09:53;101209.75;;;8.19;76.93
75136;BME280;63707;52.212;9.540;2022-11-11T00:12:20;101210.91;;;8.17;77.37
75136;BME280;63707;52.212;9.540;2022-11-11T00:14:46;101207.19;;;8.18;77.17
75136;BME280;63707;52.212;9.540;2022-11-11T00:17:12;101216.06;;;8.28;76.45
75136;BME280;63707;52.212;9.540;2022-11-11T00:19:56;101217.75;;;8.29;76.28
75136;BME280;63707;52.212;9.540;2022-11-11T00:22:40;101218.16;;;8.34;76.02
75136;BME280;63707;52.212;9.540;2022-11-11T00:25:24;101222.72;;;8.34;75.73
75136;BME280;63707;52.212;9.540;2022-11-11T00:27:53;101222.34;;;8.29;75.51
75136;BME280;63707;52.212;9.540;2022-11-11T00:30:19;101227.75;;;8.29;75.66
75136;BME280;63707;52.212;9.540;2022-11-11T00:32:44;101236.03;;;8.19;76.54
75136;BME280;63707;52.212;9.540;2022-11-11T00:35:10;101233.66;;;8.16;76.82
75136;BME280;63707;52.212;9.540;2022-11-11T00:37:54;101233.81;;;8.14;76.54
75136;BME280;63707;52.212;9.540;2022-11-11T00:40:19;101238.03;;;8.09;77.09
75136;BME280;63707;52.212;9.540;2022-11-11T00:42:47;101224.19;;;7.94;77.24
75136;BME280;63707;52.212;9.540;2022-11-11T00:45:16;101232.47;;;7.93;77.61
75136;BME280;63707;52.212;9.540;2022-11-11T00:47:42;101230.41;;;7.86;77.41
75136;BME280;63707;52.212;9.540;2022-11-11T00:50:27;101233.13;;;7.86;77.77
75136;BME280;63707;52.212;9.540;2022-11-11T00:53:13;101225.56;;;7.72;78.26
75136;BME280;63707;52.212;9.540;2022-11-11T00:55:42;101229.31;;;7.71;78.26
75136;BME280;63707;52.212;9.540;2022-11-11T00:58:08;101235.00;;;7.60;78.98
75136;BME280;63707;52.212;9.540;2022-11-11T01:00:35;101235.75;;;7.52;79.11
75136;BME280;63707;52.212;9.540;2022-11-11T01:03:01;101241.59;;;7.57;78.83
75136;BME280;63707;52.212;9.540;2022-11-11T01:05:27;101247.69;;;7.60;78.78
75136;BME280;63707;52.212;9.540;2022-11-11T01:07:53;101240.84;;;7.55;78.96
75136;BME280;63707;52.212;9.540;2022-11-11T01:10:19;101242.03;;;7.53;79.15
75136;BME280;63707;52.212;9.540;2022-11-11T01:13:12;101242.56;;;7.56;78.53
75136;BME280;63707;52.212;9.540;2022-11-11T01:15:39;101239.25;;;7.63;78.35
75136;BME280;63707;52.212;9.540;2022-11-11T01:18:05;101230.88;;;7.56;78.77
75136;BME280;63707;52.212;9.540;2022-11-11T01:20:32;101233.56;;;7.56;78.87
75136;BME280;63707;52.212;9.540;2022-11-11T01:22:59;101231.44;;;7.60;78.90
75136;BME280;63707;52.212;9.540;2022-11-11T01:25:25;101238.78;;;7.67;78.20
75136;BME280;63707;52.212;9.540;2022-11-11T01:27:50;101245.53;;;7.63;78.35
75136;BME280;63707;52.212;9.540;2022-11-11T01:30:16;101232.91;;;7.80;77.60
75136;BME280;63707;52.212;9.540;2022-11-11T01:32:43;101242.38;;;7.76;77.56
75136;BME280;63707;52.212;9.540;2022-11-11T01:35:10;101256.16;;;7.82;77.48
75136;BME280;63707;52.212;9.540;2022-11-11T01:37:36;101247.69;;;7.85;77.20
75136;BME280;63707;52.212;9.540;2022-11-11T01:40:05;101249.09;;;7.89;76.68
75136;BME280;63707;52.212;9.540;2022-11-11T01:42:45;101249.78;;;7.92;76.95
75136;BME280;63707;52.212;9.540;2022-11-11T01:45:45;101249.78;;;7.92;76.50
75136;BME280;63707;52.212;9.540;2022-11-11T01:48:13;101254.94;;;8.03;76.38
75136;BME280;63707;52.212;9.540;2022-11-11T01:51:00;101253.19;;;7.94;76.24
75136;BME280;63707;52.212;9.540;2022-11-11T01:53:28;101252.00;;;7.96;76.24
75136;BME280;63707;52.212;9.540;2022-11-11T01:55:58;101243.97;;;7.86;76.89
75136;BME280;63707;52.212;9.540;2022-11-11T01:58:26;101246.09;;;7.75;77.26
75136;BME280;63707;52.212;9.540;2022-11-11T02:00:52;101251.84;;;7.72;77.32
75136;BME280;63707;52.212;9.540;2022-11-11T02:03:20;101252.66;;;7.64;77.64
75136;BME280;63707;52.212;9.540;2022-11-11T02:05:48;101250.69;;;7.56;78.11
75136;BME280;63707;52.212;9.540;2022-11-11T02:08:16;101250.94;;;7.45;78.77
75136;BME280;63707;52.212;9.540;2022-11-11T02:11:00;101245.84;;;7.42;78.69
75136;BME280;63707;52.212;9.540;2022-11-11T02:13:26;101239.81;;;7.31;79.44
75136;BME280;63707;52.212;9.540;2022-11-11T02:16:10;101242.44;;;7.40;79.08
75136;BME280;63707;52.212;9.540;2022-11-11T02:18:37;101249.19;;;7.36;78.62
75136;BME280;63707;52.212;9.540;2022-11-11T02:21:03;101232.75;;;7.38;78.51
75136;BME280;63707;52.212;9.540;2022-11-11T02:23:33;101250.50;;;7.32;78.85
75136;BME280;63707;52.212;9.540;2022-11-11T02:26:04;101238.97;;;7.30;78.80
75136;BME280;63707;52.212;9.540;2022-11-11T02:28:32;101237.66;;;7.34;78.76
75136;BME280;63707;52.212;9.540;2022-11-11T02:30:58;101248.19;;;7.37;78.63
75136;BME280;63707;52.212;9.540;2022-11-11T02:33:26;101247.56;;;7.43;78.11
75136;BME280;63707;52.212;9.540;2022-11-11T02:35:54;101248.09;;;7.47;78.01
75136;BME280;63707;52.212;9.540;2022-11-11T02:38:21;101252.44;;;7.40;77.88
75136;BME280;63707;52.212;9.540;2022-11-11T02:40:47;101253.28;;;7.58;77.25
75136;BME280;63707;52.212;9.540;2022-11-11T02:43:40;101249.00;;;7.55;77.36
75136;BME280;63707;52.212;9.540;2022-11-11T02:46:06;101250.94;;;7.45;77.65
75136;BME280;63707;52.212;9.540;2022-11-11T02:48:32;101265.84;;;7.41;77.63
75136;BME280;63707;52.212;9.540;2022-11-11T02:50:58;101273.28;;;7.39;77.72
75136;BME280;63707;52.212;9.540;2022-11-11T02:53:24;101268.94;;;7.29;78.59
75136;BME280;63707;52.212;9.540;2022-11-11T02:55:49;101269.97;;;7.28;78.38
75136;BME280;63707;52.212;9.540;2022-11-11T02:58:15;101270.97;;;7.26;78.28
75136;BME280;63707;52.212;9.540;2022-11-11T03:00:42;101270.50;;;7.31;78.13
75136;BME280;63707;52.212;9.540;2022-11-11T03:03:08;101275.91;;;7.31;77.97
75136;BME280;63707;52.212;9.540;2022-11-11T03:05:34;101271.88;;;7.35;77.74
75136;BME280;63707;52.212;9.540;2022-11-11T03:08:00;101271.69;;;7.54;76.86
75136;BME280;63707;52.212;9.540;2022-11-11T03:10:28;101267.06;;;7.47;77.13
75136;BME280;63707;52.212;9.540;2022-11-11T03:12:54;101267.53;;;7.42;77.00
75136;BME280;63707;52.212;9.540;2022-11-11T03:15:20;101266.69;;;7.42;77.08
75136;BME280;63707;52.212;9.540;2022-11-11T03:17:47;101255.31;;;7.38;77.18
75136;BME280;63707;52.212;9.540;2022-11-11T03:20:14;101255.00;;;7.41;77.21
75136;BME280;63707;52.212;9.540;2022-11-11T03:23:02;101265.59;;;7.35;77.53
75136;BME280;63707;52.212;9.540;2022-11-11T03:25:28;101259.03;;;7.37;77.27
75136;BME280;63707;52.212;9.540;2022-11-11T03:28:03;101260.34;;;7.33;77.37
75136;BME280;63707;52.212;9.540;2022-11-11T03:30:28;101251.34;;;7.33;77.45
75136;BME280;63707;52.212;9.540;2022-11-11T03:32:56;101236.88;;;7.42;76.80
75136;BME280;63707;52.212;9.540;2022-11-11T03:35:21;101239.72;;;7.40;76.74
75136;BME280;63707;52.212;9.540;2022-11-11T03:37:47;101243.06;;;7.34;77.23
75136;BME280;63707;52.212;9.540;2022-11-11T03:40:31;101252.22;;;7.33;77.00
75136;BME280;63707;52.212;9.540;2022-11-11T03:42:56;101242.50;;;7.48;76.32
75136;BME280;63707;52.212;9.540;2022-11-11T03:45:22;101238.34;;;7.36;77.06
75136;BME280;63707;52.212;9.540;2022-11-11T03:47:47;101240.41;;;7.42;76.58
75136;BME280;63707;52.212;9.540;2022-11-11T03:50:14;101226.75;;;7.52;75.91
75136;BME280;63707;52.212;9.540;2022-11-11T03:52:40;101237.34;;;7.37;76.90
75136;BME280;63707;52.212;9.540;2022-11-11T03:55:07;101239.50;;;7.34;76.90
75136;BME280;63707;52.212;9.540;2022-11-11T03:57:33;101242.22;;;7.34;76.91
75136;BME280;63707;52.212;9.540;2022-11-11T03:59:59;101241.91;;;7.37;76.65
75136;BME280;63707;52.212;9.540;2022-11-11T04:02:24;101233.78;;;7.37;76.42
75136;BME280;63707;52.212;9.540;2022-11-11T04:05:08;101233.00;;;7.26;76.99
75136;BME280;63707;52.212;9.540;2022-11-11T04:07:54;101225.47;;;7.38;76.38
75136;BME280;63707;52.212;9.540;2022-11-11T04:10:37;101228.50;;;7.35;76.51
75136;BME280;63707;52.212;9.540;2022-11-11T04:13:04;101234.94;;;7.34;76.46
75136;BME280;63707;52.212;9.540;2022-11-11T04:15:48;101239.59;;;7.24;76.97
75136;BME280;63707;52.212;9.540;2022-11-11T04:18:32;101234.72;;;7.28;76.61
75136;BME280;63707;52.212;9.540;2022-11-11T04:21:16;101246.88;;;7.23;77.00
75136;BME280;63707;52.212;9.540;2022-11-11T04:24:01;101244.31;;;7.22;77.17
75136;BME280;63707;52.212;9.540;2022-11-11T04:26:27;101244.22;;;7.32;76.57
75136;BME280;63707;52.212;9.540;2022-11-11T04:28:52;101247.47;;;7.35;76.24
75136;BME280;63707;52.212;9.540;2022-11-11T04:31:36;101237.34;;;7.37;76.21
75136;BME280;63707;52.212;9.540;2022-11-11T04:34:22;101246.00;;;7.41;75.91
75136;BME280;63707;52.212;9.540;2022-11-11T04:36:47;101249.09;;;7.46;75.82
75136;BME280;63707;52.212;9.540;2022-11-11T04:39:14;101240.25;;;7.44;75.75
75136;BME280;63707;52.212;9.540;2022-11-11T04:41:58;101236.00;;;7.41;75.96
75136;BME280;63707;52.212;9.540;2022-11-11T04:44:23;101235.94;;;7.33;76.07
75136;BME280;63707;52.212;9.540;2022-11-11T04:47:07;101219.03;;;7.39;75.98
75136;BME280;63707;52.212;9.540;2022-11-11T04:49:33;101234.44;;;7.56;75.12
75136;BME280;63707;52.212;9.540;2022-11-11T04:52:02;101232.69;;;7.30;76.14
75136;BME280;63707;52.212;9.540;2022-11-11T04:54:47;101243.44;;;7.39;75.95
75136;BME280;63707;52.212;9.540;2022-11-11T04:57:32;101247.41;;;7.27;76.40
75136;BME280;63707;52.212;9.540;2022-11-11T04:59:57;101249.22;;;7.18;76.86
75136;BME280;63707;52.212;9.540;2022-11-11T05:02:23;101250.84;;;7.11;76.99
75136;BME280;63707;52.212;9.540;2022-11-11T05:05:07;101255.09;;;7.14;77.24
75136;BME280;63707;52.212;9.540;2022-11-11T05:07:33;101246.69;;;7.07;77.68
75136;BME280;63707;52.212;9.540;2022-11-11T05:10:18;101252.91;;;7.00;77.94
75136;BME280;63707;52.212;9.540;2022-11-11T05:12:45;101250.81;;;6.93;78.31
75136;BME280;63707;52.212;9.540;2022-11-11T05:15:11;101261.03;;;7.00;78.18
75136;BME280;63707;52.212;9.540;2022-11-11T05:17:55;101259.00;;;7.02;77.59
75136;BME280;63707;52.212;9.540;2022-11-11T05:20:39;101258.69;;;7.05;77.67
75136;BME280;63707;52.212;9.540;2022-11-11T05:23:23;101263.97;;;7.06;77.76
75136;BME280;63707;52.212;9.540;2022-11-11T05:26:09;101268.22;;;7.09;77.53
75136;BME280;63707;52.212;9.540;2022-11-11T05:28:35;101270.84;;;7.01;77.79
75136;BME280;63707;52.212;9.540;2022-11-11T05:31:00;101271.72;;;7.01;77.76
75136;BME280;63707;52.212;9.540;2022-11-11T05:33:26;101276.13;;;7.02;77.84
75136;BME280;63707;52.212;9.540;2022-11-11T05:35:52;101284.25;;;7.02;77.70
75136;BME280;63707;52.212;9.540;2022-11-11T05:38:17;101278.44;;;6.97;77.95
75136;BME280;63707;52.212;9.540;2022-11-11T05:40:46;101273.38;;;7.12;77.19
75136;BME280;63707;52.212;9.540;2022-11-11T05:43:15;101275.81;;;7.05;77.44
75136;BME280;63707;52.212;9.540;2022-11-11T05:45:41;101281.78;;;6.91;nan
75136;BME280;63707;52.212;9.540;2022-11-11T05:48:07;101280.00;;;7.00;77.84
75136;BME280;63707;52.212;9.540;2022-11-11T05:50:32;101280.22;;;6.88;78.16
75136;BME280;63707;52.212;9.540;2022-11-11T05:53:01;101286.16;;;6.74;78.87
75136;BME280;63707;52.212;9.540;2022-11-11T05:55:26;101287.16;;;6.73;78.87
75136;BME280;63707;52.212;9.540;2022-11-11T05:57:52;101282.59;;;6.74;78.97
75136;BME280;63707;52.212;9.540;2022-11-11T06:00:19;101288.47;;;6.69;79.23
75136;BME280;63707;52.212;9.540;2022-11-11T06:02:44;101291.44;;;6.76;78.78
75136;BME280;63707;52.212;9.540;2022-11-11T06:05:10;101279.50;;;6.69;78.69
75136;BME280;63707;52.212;9.540;2022-11-11T06:07:37;101285.16;;;6.75;78.88
75136;BME280;63707;52.212;9.540;2022-11-11T06:10:04;101280.50;;;6.68;79.26
75136;BME280;63707;52.212;9.540;2022-11-11T06:12:48;101292.50;;;6.83;78.53
75136;BME280;63707;52.212;9.540;2022-11-11T06:15:31;101300.66;;;6.83;78.58
75136;BME280;63707;52.212;9.540;2022-11-11T06:17:57;101301.50;;;6.83;78.69
75136;BME280;63707;52.212;9.540;2022-11-11T06:20:23;101305.16;;;6.92;78.19
75136;BME280;63707;52.212;9.540;2022-11-11T06:22:49;101293.22;;;7.03;77.82
75136;BME280;63707;52.212;9.540;2022-11-11T06:25:20;101298.88;;;7.09;77.62
75136;BME280;63707;52.212;9.540;2022-11-11T06:28:04;101310.88;;;6.89;78.09
75136;BME280;63707;52.212;9.540;2022-11-11T06:30:31;101309.53;;;6.75;78.93
75136;BME280;63707;52.212;9.540;2022-11-11T06:32:57;101308.47;;;6.86;78.29
75136;BME280;63707;52.212;9.540;2022-11-11T06:35:22;101313.72;;;6.87;78.41
75136;BME280;63707;52.212;9.540;2022-11-11T06:37:48;101301.97;;;6.97;77.68
75136;BME280;63707;52.212;9.540;2022-11-11T06:40:14;101311.00;;;7.15;77.13
75136;BME280;63707;52.212;9.540;2022-11-11T06:42:39;101310.53;;;7.19;76.57
75136;BME280;63707;52.212;9.540;2022-11-11T06:45:06;101317.75;;;7.29;76.20
75136;BME280;63707;52.212;9.540;2022-11-11T06:47:33;101321.06;;;7.40;75.68
75136;BME280;63707;52.212;9.540;2022-11-11T06:49:58;101326.88;;;7.45;75.06
75136;BME280;63707;52.212;9.540;2022-11-11T06:52:24;101321.22;;;7.56;74.66
75136;BME280;63707;52.212;9.540;2022-11-11T06:54:49;101320.75;;;7.43;75.20
75136;BME280;63707;52.212;9.540;2022-11-11T06:57:15;101323.94;;;7.39;75.83
75136;BME280;63707;52.212;9.540;2022-11-11T06:59:40;101317.81;;;7.37;75.88
75136;BME280;63707;52.212;9.540;2022-11-11T07:02:07;101326.03;;;7.27;75.75
75136;BME280;63707;52.212;9.540;2022-11-11T07:04:38;101330.75;;;7.25;76.23
75136;BME280;63707;52.212;9.540;2022-11-11T07:07:03;101338.13;;;7.33;76.09
75136;BME280;63707;52.212;9.540;2022-11-11T07:09:31;101335.25;;;7.16;76.77
75136;BME280;63707;52.212;9.540;2022-11-11T07:11:57;101332.00;;;7.13;76.52
75136;BME280;63707;52.212;9.540;2022-11-11T07:14:23;101335.09;;;7.18;76.51
75136;BME280;63707;52.212;9.540;2022-11-11T07:16:49;101329.91;;;7.24;76.34
75136;BME280;63707;52.212;9.540;2022-11-11T07:19:18;101340.75;;;7.24;76.55
75136;BME280;63707;52.212;9.540;2022-11-11T07:21:45;101331.38;;;7.19;76.31
75136;BME280;63707;52.212;9.540;2022-11-11T07:24:12;101339.28;;;7.12;76.84
75136;BME280;63707;52.212;9.540;2022-11-11T07:26:38;101340.66;;;7.16;76.60
75136;BME280;63707;52.212;9.540;2022-11-11T07:29:03;101341.38;;;7.18;76.59
75136;BME280;63707;52.212;9.540;2022-11-11T07:31:28;101338.09;;;7.15;76.73
75136;BME280;63707;52.212;9.540;2022-11-11T07:33:54;101336.78;;;7.19;76.69
75136;BME280;63707;52.212;9.540;2022-11-11T07:36:20;101347.41;;;7.30;76.18
75136;BME280;63707;52.212;9.540;2022-11-11T07:38:47;101340.97;;;7.31;76.40
75136;BME280;63707;52.212;9.540;2022-11-11T07:41:12;101345.63;;;7.39;76.07
75136;BME280;63707;52.212;9.540;2022-11-11T07:43:38;101344.84;;;7.46;75.65
75136;BME280;63707;52.212;9.540;2022-11-11T07:46:04;101342.28;;;7.80;74.54
75136;BME280;63707;52.212;9.540;2022-11-11T07:48:29;101343.34;;;8.31;72.73
75136;BME280;63707;52.212;9.540;2022-11-11T07:50:57;101360.25;;;8.43;72.15
75136;BME280;63707;52.212;9.540;2022-11-11T07:53:23;101360.78;;;8.46;72.41
75136;BME280;63707;52.212;9.540;2022-11-11T07:55:51;101364.44;;;8.97;70.06
75136;BME280;63707;52.212;9.540;2022-11-11T07:58:17;101357.97;;;9.49;68.88
75136;BME280;63707;52.212;9.540;2022-11-11T08:00:44;101365.50;;;9.79;67.58
75136;BME280;63707;52.212;9.540;2022-11-11T08:03:10;101362.25;;;9.59;67.74
75136;BME280;63707;52.212;9.540;2022-11-11T08:05:35;101364.63;;;9.62;67.41
75136;BME280;63707;52.212;9.540;2022-11-11T08:08:04;101368.72;;;9.74;68.25
75136;BME280;63707;52.212;9.540;2022-11-11T08:10:31;101370.94;;;9.63;68.28
75136;BME280;63707;52.212;9.540;2022-11-11T08:12:58;101375.88;;;9.84;67.60
75136;BME280;63707;52.212;9.540;2022-11-11T08:15:42;101377.22;;;9.05;70.08
75136;BME280;63707;52.212;9.540;2022-11-11T08:18:08;101364.06;;;8.92;70.47
75136;BME280;63707;52.212;9.540;2022-11-11T08:20:33;101372.91;;;8.94;71.09
75136;BME280;63707;52.212;9.540;2022-11-11T08:23:01;101357.72;;;9.09;69.62
75136;BME280;63707;52.212;9.540;2022-11-11T08:25:29;101366.69;;;10.25;66.52
75136;BME280;63707;52.212;9.540;2022-11-11T08:28:00;101368.75;;;9.99;66.43
75136;BME280;63707;52.212;9.540;2022-11-11T08:30:26;101369.44;;;10.42;65.64
75136;BME280;63707;52.212;9.540;2022-11-11T08:32:56;101365.41;;;11.47;62.61
75136;BME280;63707;52.212;9.540;2022-11-11T08:35:21;101373.69;;;10.44;66.14
75136;BME280;63707;52.212;9.540;2022-11-11T08:37:47;101387.00;;;9.40;69.25
75136;BME280;63707;52.212;9.540;2022-11-11T08:40:13;101381.75;;;8.96;70.62
75136;BME280;63707;52.212;9.540;2022-11-11T08:42:38;101393.47;;;8.97;71.05
75136;BME280;63707;52.212;9.540;2022-11-11T08:45:07;101391.34;;;9.08;70.06
75136;BME280;63707;52.212;9.540;2022-11-11T08:47:33;101392.19;;;8.75;72.21
75136;BME280;63707;52.212;9.540;2022-11-11T08:49:59;101388.00;;;8.89;71.34
75136;BME280;63707;52.212;9.540;2022-11-11T08:52:24;101403.75;;;8.77;71.56
75136;BME280;63707;52.212;9.540;2022-11-11T08:54:50;101398.56;;;8.92;71.07
75136;BME280;63707;52.212;9.540;2022-11-11T08:57:15;101395.47;;;8.87;71.40
75136;BME280;63707;52.212;9.540;2022-11-11T08:59:41;101393.81;;;8.94;71.53
75136;BME280;63707;52.212;9.540;2022-11-11T09:02:10;101390.66;;;9.06;71.46
75136;BME280;63707;52.212;9.540;2022-11-11T09:04:39;101391.25;;;9.34;70.00
75136;BME280;63707;52.212;9.540;2022-11-11T09:07:05;101392.97;;;9.43;70.07
75136;BME280;63707;52.212;9.540;2022-11-11T09:09:31;101391.22;;;9.18;70.92
75136;BME280;63707;52.212;9.540;2022-11-11T09:11:56;101392.44;;;9.40;70.55
75136;BME280;63707;52.212;9.540;2022-11-11T09:14:22;101376.81;;;9.34;70.29
75136;BME280;63707;52.212;9.540;2022-11-11T09:16:48;101377.81;;;9.33;70.50
75136;BME280;63707;52.212;9.540;2022-11-11T09:19:15;101387.34;;;9.37;70.86
75136;BME280;63707;52.212;9.540;2022-11-11T09:21:42;101385.97;;;9.33;70.69
75136;BME280;63707;52.212;9.540;2022-11-11T09:24:08;101386.69;;;9.43;70.39
75136;BME280;63707;52.212;9.540;2022-11-11T09:26:33;101396.09;;;9.65;70.33
75136;BME280;63707;52.212;9.540;2022-11-11T09:28:59;101393.56;;;9.88;68.49
75136;BME280;63707;52.212;9.540;2022-11-11T09:31:24;101397.00;;;9.98;68.03
75136;BME280;63707;52.212;9.540;2022-11-11T09:33:50;101397.31;;;9.87;68.11
75136;BME280;63707;52.212;9.540;2022-11-11T09:36:17;101407.72;;;10.16;67.32
75136;BME280;63707;52.212;9.540;2022-11-11T09:38:43;101415.03;;;10.15;67.78
75136;BME280;63707;52.212;9.540;2022-11-11T09:41:17;101418.59;;;10.40;67.02
75136;BME280;63707;52.212;9.540;2022-11-11T09:43:50;101417.63;;;10.41;67.18
75136;BME280;63707;52.212;9.540;2022-11-11T09:46:28;101408.25;;;10.44;67.02
75136;BME280;63707;52.212;9.540;2022-11-11T09:49:07;101409.09;;;10.52;66.78
75136;BME280;63707;52.212;9.540;2022-11-11T09:51:42;101408.75;;;10.31;67.82
75136;BME280;63707;52.212;9.540;2022-11-11T09:54:16;101413.34;;;10.55;66.91
75136;BME280;63707;52.212;9.540;2022-11-11T09:56:48;101412.78;;;10.76;65.86
75136;BME280;63707;52.212;9.540;2022-11-11T09:59:16;101419.72;;;10.86;65.46
75136;BME280;63707;52.212;9.540;2022-11-11T10:01:47;101424.84;;;10.81;65.36
75136;BME280;63707;52.212;9.540;2022-11-11T10:04:26;101423.84;;;10.74;66.06
75136;BME280;63707;52.212;9.540;2022-11-11T10:07:05;101415.63;;;10.98;65.10
75136;BME280;63707;52.212;9.540;2022-11-11T10:09:37;101410.16;;;10.98;65.36
75136;BME280;63707;52.212;9.540;2022-11-11T10:12:08;101403.34;;;10.86;65.63
75136;BME280;63707;52.212;9.540;2022-11-11T10:14:37;101412.88;;;10.98;65.68
75136;BME280;63707;52.212;9.540;2022-11-11T10:17:10;101421.28;;;10.89;65.28
75136;BME280;63707;52.212;9.540;2022-11-11T10:19:51;101410.41;;;11.20;64.78
75136;BME280;63707;52.212;9.540;2022-11-11T10:22:29;101411.75;;;11.24;64.79
75136;BME280;63707;52.212;9.540;2022-11-11T10:25:05;101406.97;;;11.26;64.12
75136;BME280;63707;52.212;9.540;2022-11-11T10:27:32;101409.13;;;11.39;63.55
75136;BME280;63707;52.212;9.540;2022-11-11T10:29:58;101417.84;;;11.65;63.52
75136;BME280;63707;52.212;9.540;2022-11-11T10:32:27;101428.16;;;11.86;62.76
75136;BME280;63707;52.212;9.540;2022-11-11T10:35:14;101434.66;;;11.85;62.36
75136;BME280;63707;52.212;9.540;2022-11-11T10:37:42;101431.56;;;12.11;61.46
75136;BME280;63707;52.212;9.540;2022-11-11T10:40:16;101429.81;;;11.95;61.87
75136;BME280;63707;52.212;9.540;2022-11-11T10:42:42;101442.44;;;12.19;60.84
75136;BME280;63707;52.212;9.540;2022-11-11T10:45:13;101437.06;;;12.25;60.19
75136;BME280;63707;52.212;9.540;2022-11-11T10:47:48;101430.16;;;12.38;59.75
75136;BME280;63707;52.212;9.540;2022-11-11T10:50:21;101436.78;;;12.20;60.92
75136;BME280;63707;52.212;9.540;2022-11-11T10:52:55;101433.78;;;12.53;60.40
75136;BME280;63707;52.212;9.540;2022-11-11T10:55:27;101430.19;;;12.29;60.82
75136;BME280;63707;52.212;9.540;2022-11-11T10:57:59;101419.13;;;12.83;59.62
75136;BME280;63707;52.212;9.540;2022-11-11T11:00:27;101431.13;;;12.59;60.48
75136;BME280;63707;52.212;9.540;2022-11-11T11:02:58;101431.25;;;12.66;59.66
75136;BME280;63707;52.212;9.540;2022-11-11T11:05:27;101445.34;;;12.78;59.43
75136;BME280;63707;52.212;9.540;2022-11-11T11:08:00;101421.19;;;13.11;58.93
75136;BME280;63707;52.212;9.540;2022-11-11T11:10:32;101425.06;;;12.87;58.95
75136;BME280;63707;52.212;9.540;2022-11-11T11:13:03;101425.06;;;12.87;58.57
75136;BME280;63707;52.212;9.540;2022-11-11T11:15:34;101422.22;;;13.10;58.48
75136;BME280;63707;52.212;9.540;2022-11-11T11:18:04;101427.78;;;13.02;58.44
75136;BME280;63707;52.212;9.540;2022-11-11T11:20:30;101418.72;;;13.01;57.87
75136;BME280;63707;52.212;9.540;2022-11-11T11:22:58;101428.19;;;13.28;58.00
75136;BME280;63707;52.212;9.540;2022-11-11T11:25:29;101422.50;;;13.15;57.87
75136;BME280;63707;52.212;9.540;2022-11-11T11:28:06;101430.28;;;13.26;57.82
75136;BME280;63707;52.212;9.540;2022-11-11T11:30:32;101417.03;;;13.00;58.30
75136;BME280;63707;52.212;9.540;2022-11-11T11:32:59;101413.09;;;13.17;58.15
75136;BME280;63707;52.212;9.540;2022-11-11T11:35:30;101402.78;;;13.34;58.24
75136;BME280;63707;52.212;9.540;2022-11-11T11:37:57;101404.94;;;13.24;58.92
75136;BME280;63707;52.212;9.540;2022-11-11T11:40:23;101406.00;;;13.38;58.71
75136;BME280;63707;52.212;9.540;2022-11-11T11:42:48;101396.38;;;13.27;59.30
75136;BME280;63707;52.212;9.540;2022-11-11T11:45:18;101394.78;;;13.33;57.51
75136;BME280;63707;52.212;9.540;2022-11-11T11:47:49;101396.19;;;13.29;57.70
75136;BME280;63707;52.212;9.540;2022-11-11T11:50:28;101397.41;;;13.41;57.81
75136;BME280;63707;52.212;9.540;2022-11-11T11:53:07;101388.59;;;13.45;58.29
75136;BME280;63707;52.212;9.540;2022-11-11T11:55:42;101382.72;;;13.27;60.94
75136;BME280;63707;52.212;9.540;2022-11-11T11:58:22;101397.41;;;13.41;59.19
75136;BME280;63707;52.212;9.540;2022-11-11T12:00:55;101376.09;;;13.58;59.49
75136;BME280;63707;52.212;9.540;2022-11-11T12:06:26;101380.69;;;13.72;58.17
75136;BME280;63707;52.212;9.540;2022-11-11T12:09:04;101381.22;;;13.82;57.74
75136;BME280;63707;52.212;9.540;2022-11-11T12:11:37;101374.63;;;13.98;58.03
75136;BME280;63707;52.212;9.540;2022-11-11T12:14:23;101379.53;;;13.81;57.79
75136;BME280;63707;52.212;9.540;2022-11-11T12:16:54;101383.16;;;14.09;58.26
75136;BME280;63707;52.212;9.540;2022-11-11T12:19:33;101384.22;;;14.58;58.89
75136;BME280;63707;52.212;9.540;2022-11-11T12:22:07;101384.41;;;14.07;56.59
75136;BME280;63707;52.212;9.540;2022-11-11T12:24:48;101388.78;;;14.01;57.03
75136;BME280;63707;52.212;9.540;2022-11-11T12:27:22;101385.19;;;14.01;56.16
75136;BME280;63707;52.212;9.540;2022-11-11T12:30:01;101397.34;;;13.92;57.13
75136;BME280;63707;52.212;9.540;2022-11-11T12:32:48;101391.25;;;13.96;57.97
75136;BME280;63707;52.212;9.540;2022-11-11T12:35:35;101399.16;;;14.06;57.33
75136;BME280;63707;52.212;9.540;2022-11-11T12:38:19;101394.47;;;14.21;56.45
75136;BME280;63707;52.212;9.540;2022-11-11T12:40:58;101393.81;;;13.98;56.42
75136;BME280;63707;52.212;9.540;2022-11-11T12:43:35;101405.88;;;14.03;56.48
75136;BME280;63707;52.212;9.540;2022-11-11T12:46:10;101404.13;;;13.96;56.62
75136;BME280;63707;52.212;9.540;2022-11-11T12:48:50;101411.88;;;14.13;56.52
75136;BME280;63707;52.212;9.540;2022-11-11T12:51:28;101408.72;;;14.16;57.04
75136;BME280;63707;52.212;9.540;2022-11-11T12:54:02;101415.13;;;14.02;57.88
75136;BME280;63707;52.212;9.540;2022-11-11T12:56:38;101412.41;;;14.02;57.87
75136;BME280;63707;52.212;9.540;2022-11-11T12:59:12;101411.34;;;14.03;57.85
75136;BME280;63707;52.212;9.540;2022-11-11T13:01:50;101413.56;;;13.93;58.46
75136;BME280;63707;52.212;9.540;2022-11-11T13:04:26;101413.25;;;13.81;58.74
75136;BME280;63707;52.212;9.540;2022-11-11T13:07:23;101417.28;;;13.85;59.25
75136;BME280;63707;52.212;9.540;2022-11-11T13:10:18;101418.28;;;13.78;59.17
75136;BME280;63707;52.212;9.540;2022-11-11T13:12:56;101416.47;;;13.70;59.64
75136;BME280;63707;52.212;9.540;2022-11-11T13:15:27;101415.75;;;13.62;59.43
75136;BME280;63707;52.212;9.540;2022-11-11T13:17:53;101431.13;;;13.63;59.89